sensor_id;sensor_type;location;lat;lon;timestamp;P1;durP1;ratioP1;P2;durP2;ratioP2
55053;SDS011;40954;45.668;18.980;2023-02-22T00:01:01;41.05;;;26.58;;
55053;SDS011;40954;45.668;18.980;2023-02-22T00:03:32;20.05;;;14.40;;
55053;SDS011;40954;45.668;18.980;2023-02-22T00:05:59;16.60;;;10.27;;
55053;SDS011;40954;45.668;18.980;2023-02-22T00:08:29;13.85;;;9.10;;
55053;SDS011;40954;45.668;18.980;2023-02-22T00:11:00;20.08;;;10.65;;
55053;SDS011;40954;45.668;18.980;2023-02-22T00:13:27;15.57;;;10.15;;
55053;SDS011;40954;45.668;18.980;2023-02-22T00:15:56;14.25;;;8.95;;
55053;SDS011;40954;45.668;18.980;2023-02-22T00:18:22;14.57;;;10.00;;
55053;SDS011;40954;45.668;18.980;2023-02-22T00:20:52;20.02;;;9.02;;
55053;SDS011;40954;45.668;18.980;2023-02-22T00:23:19;10.40;;;7.45;;
55053;SDS011;40954;45.668;18.980;2023-02-22T00:25:46;11.18;;;8.13;;
55053;SDS011;40954;45.668;18.980;2023-02-22T00:28:13;11.63;;;7.85;;
55053;SDS011;40954;45.668;18.980;2023-02-22T00:30:41;12.43;;;7.47;;
55053;SDS011;40954;45.668;18.980;2023-02-22T00:33:08;12.30;;;8.20;;
55053;SDS011;40954;45.668;18.980;2023-02-22T00:35:34;11.48;;;7.82;;
55053;SDS011;40954;45.668;18.980;2023-02-22T00:38:01;11.93;;;8.05;;
55053;SDS011;40954;45.668;18.980;2023-02-22T00:40:28;10.52;;;7.22;;
55053;SDS011;40954;45.668;18.980;2023-02-22T00:42:55;11.40;;;7.82;;
55053;SDS011;40954;45.668;18.980;2023-02-22T00:45:22;12.30;;;8.50;;
55053;SDS011;40954;45.668;18.980;2023-02-22T00:47:49;14.20;;;8.82;;
55053;SDS011;40954;45.668;18.980;2023-02-22T00:50:15;14.05;;;7.93;;
55053;SDS011;40954;45.668;18.980;2023-02-22T00:52:42;16.75;;;8.70;;
55053;SDS011;40954;45.668;18.980;2023-02-22T00:55:08;11.77;;;8.43;;
55053;SDS011;40954;45.668;18.980;2023-02-22T00:57:35;11.20;;;8.93;;
55053;SDS011;40954;45.668;18.980;2023-02-22T01:00:05;17.13;;;9.00;;
55053;SDS011;40954;45.668;18.980;2023-02-22T01:02:40;13.70;;;8.80;;
55053;SDS011;40954;45.668;18.980;2023-02-22T01:05:06;13.80;;;9.50;;
55053;SDS011;40954;45.668;18.980;2023-02-22T01:07:33;11.98;;;8.63;;
55053;SDS011;40954;45.668;18.980;2023-02-22T01:09:59;15.68;;;9.52;;
55053;SDS011;40954;45.668;18.980;2023-02-22T01:12:26;14.65;;;9.35;;
55053;SDS011;40954;45.668;18.980;2023-02-22T01:14:52;11.40;;;9.68;;
55053;SDS011;40954;45.668;18.980;2023-02-22T01:17:21;15.27;;;10.45;;
55053;SDS011;40954;45.668;18.980;2023-02-22T01:19:47;18.63;;;11.57;;
55053;SDS011;40954;45.668;18.980;2023-02-22T01:22:13;19.27;;;12.40;;
55053;SDS011;40954;45.668;18.980;2023-02-22T01:24:39;20.23;;;14.25;;
55053;SDS011;40954;45.668;18.980;2023-02-22T01:27:05;20.52;;;14.98;;
55053;SDS011;40954;45.668;18.980;2023-02-22T01:29:31;22.30;;;15.57;;
55053;SDS011;40954;45.668;18.980;2023-02-22T01:31:57;26.90;;;17.92;;
55053;SDS011;40954;45.668;18.980;2023-02-22T01:34:23;28.83;;;18.50;;
55053;SDS011;40954;45.668;18.980;2023-02-22T01:36:50;23.60;;;18.58;;
55053;SDS011;40954;45.668;18.980;2023-02-22T01:39:16;28.30;;;19.55;;
55053;SDS011;40954;45.668;18.980;2023-02-22T01:41:44;33.05;;;24.42;;
55053;SDS011;40954;45.668;18.980;2023-02-22T01:44:18;29.58;;;20.67;;
55053;SDS011;40954;45.668;18.980;2023-02-22T01:46:44;27.05;;;19.90;;
55053;SDS011;40954;45.668;18.980;2023-02-22T01:49:10;28.90;;;19.67;;
55053;SDS011;40954;45.668;18.980;2023-02-22T01:51:39;24.65;;;17.95;;
55053;SDS011;40954;45.668;18.980;2023-02-22T01:56:41;23.23;;;17.65;;
55053;SDS011;40954;45.668;18.980;2023-02-22T01:59:10;26.00;;;18.02;;
55053;SDS011;40954;45.668;18.980;2023-02-22T02:01:37;23.88;;;17.02;;
55053;SDS011;40954;45.668;18.980;2023-02-22T02:04:08;24.98;;;18.13;;
55053;SDS011;40954;45.668;18.980;2023-02-22T02:06:35;27.40;;;17.02;;
55053;SDS011;40954;45.668;18.980;2023-02-22T02:09:03;24.13;;;16.85;;
55053;SDS011;40954;45.668;18.980;2023-02-22T02:11:30;22.73;;;16.02;;
55053;SDS011;40954;45.668;18.980;2023-02-22T02:13:57;22.77;;;16.33;;
55053;SDS011;40954;45.668;18.980;2023-02-22T02:16:23;23.00;;;17.67;;
55053;SDS011;40954;45.668;18.980;2023-02-22T02:18:50;23.90;;;17.13;;
55053;SDS011;40954;45.668;18.980;2023-02-22T02:26:58;24.52;;;17.65;;
55053;SDS011;40954;45.668;18.980;2023-02-22T02:36:53;24.55;;;17.63;;
55053;SDS011;40954;45.668;18.980;2023-02-22T02:39:26;29.23;;;18.33;;
55053;SDS011;40954;45.668;18.980;2023-02-22T02:44:21;28.40;;;18.73;;
55053;SDS011;40954;45.668;18.980;2023-02-22T02:46:50;25.85;;;17.67;;
55053;SDS011;40954;45.668;18.980;2023-02-22T02:49:21;24.88;;;18.13;;
55053;SDS011;40954;45.668;18.980;2023-02-22T02:51:51;26.83;;;18.20;;
55053;SDS011;40954;45.668;18.980;2023-02-22T02:54:18;22.50;;;17.17;;
55053;SDS011;40954;45.668;18.980;2023-02-22T02:56:45;25.10;;;17.52;;
55053;SDS011;40954;45.668;18.980;2023-02-22T02:59:44;26.75;;;16.90;;
55053;SDS011;40954;45.668;18.980;2023-02-22T03:09:37;26.15;;;17.33;;
55053;SDS011;40954;45.668;18.980;2023-02-22T03:17:15;27.02;;;18.77;;
55053;SDS011;40954;45.668;18.980;2023-02-22T03:27:22;26.98;;;17.10;;
55053;SDS011;40954;45.668;18.980;2023-02-22T03:29:50;23.05;;;16.83;;
55053;SDS011;40954;45.668;18.980;2023-02-22T03:32:21;24.08;;;16.65;;
55053;SDS011;40954;45.668;18.980;2023-02-22T03:34:53;21.65;;;14.90;;
55053;SDS011;40954;45.668;18.980;2023-02-22T03:37:22;24.38;;;15.35;;
55053;SDS011;40954;45.668;18.980;2023-02-22T03:39:50;19.90;;;15.07;;
55053;SDS011;40954;45.668;18.980;2023-02-22T03:42:20;22.92;;;15.95;;
55053;SDS011;40954;45.668;18.980;2023-02-22T03:44:47;20.05;;;14.43;;
55053;SDS011;40954;45.668;18.980;2023-02-22T03:47:17;23.10;;;16.52;;
55053;SDS011;40954;45.668;18.980;2023-02-22T03:49:56;26.73;;;16.65;;
55053;SDS011;40954;45.668;18.980;2023-02-22T03:52:23;26.08;;;17.50;;
55053;SDS011;40954;45.668;18.980;2023-02-22T03:54:50;25.48;;;17.77;;
55053;SDS011;40954;45.668;18.980;2023-02-22T03:57:23;28.38;;;18.77;;
55053;SDS011;40954;45.668;18.980;2023-02-22T03:59:50;31.50;;;18.88;;
55053;SDS011;40954;45.668;18.980;2023-02-22T04:02:16;24.23;;;17.23;;
55053;SDS011;40954;45.668;18.980;2023-02-22T04:04:43;25.50;;;17.10;;
55053;SDS011;40954;45.668;18.980;2023-02-22T04:07:09;25.40;;;16.70;;
55053;SDS011;40954;45.668;18.980;2023-02-22T04:09:35;23.38;;;17.73;;
55053;SDS011;40954;45.668;18.980;2023-02-22T04:12:01;25.77;;;18.77;;
55053;SDS011;40954;45.668;18.980;2023-02-22T04:14:28;26.75;;;19.05;;
55053;SDS011;40954;45.668;18.980;2023-02-22T04:16:54;25.58;;;17.88;;
55053;SDS011;40954;45.668;18.980;2023-02-22T04:19:20;22.50;;;17.60;;
55053;SDS011;40954;45.668;18.980;2023-02-22T04:21:46;26.98;;;18.52;;
55053;SDS011;40954;45.668;18.980;2023-02-22T04:24:13;24.27;;;18.50;;
55053;SDS011;40954;45.668;18.980;2023-02-22T04:26:39;27.95;;;19.23;;
55053;SDS011;40954;45.668;18.980;2023-02-22T04:29:05;30.40;;;19.88;;
55053;SDS011;40954;45.668;18.980;2023-02-22T04:31:32;27.35;;;20.20;;
55053;SDS011;40954;45.668;18.980;2023-02-22T04:33:58;29.25;;;18.73;;
55053;SDS011;40954;45.668;18.980;2023-02-22T04:36:25;29.20;;;19.05;;
55053;SDS011;40954;45.668;18.980;2023-02-22T04:38:52;29.23;;;18.27;;
55053;SDS011;40954;45.668;18.980;2023-02-22T04:41:18;25.85;;;18.65;;
55053;SDS011;40954;45.668;18.980;2023-02-22T04:43:45;29.63;;;18.60;;
55053;SDS011;40954;45.668;18.980;2023-02-22T04:46:11;30.40;;;19.52;;
55053;SDS011;40954;45.668;18.980;2023-02-22T04:48:37;26.52;;;20.00;;
55053;SDS011;40954;45.668;18.980;2023-02-22T04:51:03;28.80;;;20.25;;
55053;SDS011;40954;45.668;18.980;2023-02-22T04:53:30;29.80;;;21.27;;
55053;SDS011;40954;45.668;18.980;2023-02-22T04:55:56;31.77;;;23.55;;
55053;SDS011;40954;45.668;18.980;2023-02-22T04:58:22;47.08;;;29.65;;
55053;SDS011;40954;45.668;18.980;2023-02-22T05:00:48;43.80;;;27.65;;
55053;SDS011;40954;45.668;18.980;2023-02-22T05:03:14;46.50;;;28.85;;
55053;SDS011;40954;45.668;18.980;2023-02-22T05:05:40;45.60;;;30.40;;
55053;SDS011;40954;45.668;18.980;2023-02-22T05:08:06;30.77;;;21.35;;
55053;SDS011;40954;45.668;18.980;2023-02-22T05:10:32;31.00;;;21.60;;
55053;SDS011;40954;45.668;18.980;2023-02-22T05:12:58;49.20;;;36.65;;
55053;SDS011;40954;45.668;18.980;2023-02-22T05:15:24;33.90;;;25.77;;
55053;SDS011;40954;45.668;18.980;2023-02-22T05:17:50;30.42;;;22.00;;
55053;SDS011;40954;45.668;18.980;2023-02-22T05:20:21;35.42;;;22.15;;
55053;SDS011;40954;45.668;18.980;2023-02-22T05:22:48;30.17;;;22.52;;
55053;SDS011;40954;45.668;18.980;2023-02-22T05:25:15;31.20;;;22.08;;
55053;SDS011;40954;45.668;18.980;2023-02-22T05:27:41;33.42;;;23.23;;
55053;SDS011;40954;45.668;18.980;2023-02-22T05:30:09;36.08;;;23.48;;
55053;SDS011;40954;45.668;18.980;2023-02-22T05:32:35;34.95;;;24.15;;
55053;SDS011;40954;45.668;18.980;2023-02-22T05:35:01;42.00;;;28.52;;
55053;SDS011;40954;45.668;18.980;2023-02-22T05:37:30;46.55;;;30.73;;
55053;SDS011;40954;45.668;18.980;2023-02-22T05:39:55;47.30;;;32.45;;
55053;SDS011;40954;45.668;18.980;2023-02-22T05:42:21;42.28;;;30.33;;
55053;SDS011;40954;45.668;18.980;2023-02-22T05:44:47;44.75;;;31.65;;
55053;SDS011;40954;45.668;18.980;2023-02-22T05:47:13;47.65;;;32.72;;
55053;SDS011;40954;45.668;18.980;2023-02-22T05:49:39;43.08;;;31.17;;
55053;SDS011;40954;45.668;18.980;2023-02-22T05:52:05;36.35;;;24.50;;
55053;SDS011;40954;45.668;18.980;2023-02-22T05:54:31;29.63;;;21.55;;
55053;SDS011;40954;45.668;18.980;2023-02-22T05:56:57;28.42;;;21.65;;
55053;SDS011;40954;45.668;18.980;2023-02-22T05:59:23;35.10;;;24.92;;
55053;SDS011;40954;45.668;18.980;2023-02-22T06:01:49;38.85;;;28.33;;
55053;SDS011;40954;45.668;18.980;2023-02-22T06:04:15;40.70;;;29.98;;
55053;SDS011;40954;45.668;18.980;2023-02-22T06:06:41;45.75;;;28.65;;
55053;SDS011;40954;45.668;18.980;2023-02-22T06:09:07;43.58;;;30.52;;
55053;SDS011;40954;45.668;18.980;2023-02-22T06:11:33;51.83;;;32.75;;
55053;SDS011;40954;45.668;18.980;2023-02-22T06:13:59;55.33;;;37.88;;
55053;SDS011;40954;45.668;18.980;2023-02-22T06:16:25;43.15;;;29.08;;
55053;SDS011;40954;45.668;18.980;2023-02-22T06:18:51;52.85;;;31.27;;
55053;SDS011;40954;45.668;18.980;2023-02-22T06:21:17;47.58;;;30.38;;
55053;SDS011;40954;45.668;18.980;2023-02-22T06:23:44;41.70;;;26.88;;
55053;SDS011;40954;45.668;18.980;2023-02-22T06:26:09;43.13;;;30.65;;
55053;SDS011;40954;45.668;18.980;2023-02-22T06:28:35;34.10;;;24.10;;
55053;SDS011;40954;45.668;18.980;2023-02-22T06:31:01;37.70;;;25.08;;
55053;SDS011;40954;45.668;18.980;2023-02-22T06:33:27;44.55;;;29.42;;
55053;SDS011;40954;45.668;18.980;2023-02-22T06:35:53;50.63;;;32.58;;
55053;SDS011;40954;45.668;18.980;2023-02-22T06:38:21;47.25;;;31.23;;
55053;SDS011;40954;45.668;18.980;2023-02-22T06:40:47;47.72;;;33.08;;
55053;SDS011;40954;45.668;18.980;2023-02-22T06:43:13;47.75;;;33.08;;
55053;SDS011;40954;45.668;18.980;2023-02-22T06:45:39;53.83;;;33.72;;
55053;SDS011;40954;45.668;18.980;2023-02-22T06:48:05;56.72;;;34.85;;
55053;SDS011;40954;45.668;18.980;2023-02-22T06:50:31;52.53;;;32.72;;
55053;SDS011;40954;45.668;18.980;2023-02-22T06:52:58;49.50;;;33.58;;
55053;SDS011;40954;45.668;18.980;2023-02-22T06:55:27;46.25;;;31.50;;
55053;SDS011;40954;45.668;18.980;2023-02-22T06:57:53;45.17;;;30.65;;
55053;SDS011;40954;45.668;18.980;2023-02-22T07:00:20;58.15;;;37.47;;
55053;SDS011;40954;45.668;18.980;2023-02-22T07:02:48;55.80;;;35.05;;
55053;SDS011;40954;45.668;18.980;2023-02-22T07:05:15;43.60;;;29.10;;
55053;SDS011;40954;45.668;18.980;2023-02-22T07:07:41;44.10;;;30.13;;
55053;SDS011;40954;45.668;18.980;2023-02-22T07:10:07;44.95;;;29.77;;
55053;SDS011;40954;45.668;18.980;2023-02-22T07:12:34;39.03;;;26.20;;
55053;SDS011;40954;45.668;18.980;2023-02-22T07:15:00;32.97;;;22.73;;
55053;SDS011;40954;45.668;18.980;2023-02-22T07:17:26;31.77;;;22.10;;
55053;SDS011;40954;45.668;18.980;2023-02-22T07:19:52;29.85;;;19.67;;
55053;SDS011;40954;45.668;18.980;2023-02-22T07:22:18;32.13;;;20.70;;
55053;SDS011;40954;45.668;18.980;2023-02-22T07:24:44;33.30;;;23.48;;
55053;SDS011;40954;45.668;18.980;2023-02-22T07:27:11;42.03;;;26.23;;
55053;SDS011;40954;45.668;18.980;2023-02-22T07:29:37;33.72;;;24.95;;
55053;SDS011;40954;45.668;18.980;2023-02-22T07:32:03;40.63;;;26.17;;
55053;SDS011;40954;45.668;18.980;2023-02-22T07:34:30;31.45;;;22.10;;
55053;SDS011;40954;45.668;18.980;2023-02-22T07:36:56;30.77;;;22.17;;
55053;SDS011;40954;45.668;18.980;2023-02-22T07:39:22;32.85;;;20.92;;
55053;SDS011;40954;45.668;18.980;2023-02-22T07:41:48;27.15;;;21.90;;
55053;SDS011;40954;45.668;18.980;2023-02-22T07:44:14;28.70;;;21.23;;
55053;SDS011;40954;45.668;18.980;2023-02-22T07:46:40;25.80;;;20.10;;
55053;SDS011;40954;45.668;18.980;2023-02-22T07:49:06;31.13;;;22.55;;
55053;SDS011;40954;45.668;18.980;2023-02-22T07:51:32;27.15;;;20.00;;
55053;SDS011;40954;45.668;18.980;2023-02-22T07:53:58;37.92;;;26.30;;
55053;SDS011;40954;45.668;18.980;2023-02-22T07:56:24;39.88;;;25.33;;
55053;SDS011;40954;45.668;18.980;2023-02-22T07:58:50;31.95;;;20.33;;
55053;SDS011;40954;45.668;18.980;2023-02-22T08:01:16;22.42;;;16.77;;
55053;SDS011;40954;45.668;18.980;2023-02-22T08:03:42;31.63;;;21.13;;
55053;SDS011;40954;45.668;18.980;2023-02-22T08:06:11;33.30;;;21.70;;
55053;SDS011;40954;45.668;18.980;2023-02-22T08:08:37;31.25;;;20.05;;
55053;SDS011;40954;45.668;18.980;2023-02-22T08:11:04;30.48;;;18.38;;
55053;SDS011;40954;45.668;18.980;2023-02-22T08:13:30;31.25;;;18.38;;
55053;SDS011;40954;45.668;18.980;2023-02-22T08:15:56;35.92;;;21.15;;
55053;SDS011;40954;45.668;18.980;2023-02-22T08:18:22;24.30;;;15.73;;
55053;SDS011;40954;45.668;18.980;2023-02-22T08:20:49;28.27;;;16.40;;
55053;SDS011;40954;45.668;18.980;2023-02-22T08:23:16;25.63;;;16.05;;
55053;SDS011;40954;45.668;18.980;2023-02-22T08:25:42;25.33;;;16.42;;
55053;SDS011;40954;45.668;18.980;2023-02-22T08:28:12;29.67;;;15.50;;
55053;SDS011;40954;45.668;18.980;2023-02-22T08:30:39;24.63;;;16.13;;
55053;SDS011;40954;45.668;18.980;2023-02-22T08:33:07;24.52;;;15.13;;
55053;SDS011;40954;45.668;18.980;2023-02-22T08:35:34;22.10;;;13.77;;
55053;SDS011;40954;45.668;18.980;2023-02-22T08:38:02;17.00;;;12.32;;
55053;SDS011;40954;45.668;18.980;2023-02-22T08:40:29;17.95;;;12.77;;
55053;SDS011;40954;45.668;18.980;2023-02-22T08:42:56;20.52;;;11.13;;
55053;SDS011;40954;45.668;18.980;2023-02-22T08:45:22;21.65;;;11.90;;
55053;SDS011;40954;45.668;18.980;2023-02-22T08:47:48;18.25;;;12.02;;
55053;SDS011;40954;45.668;18.980;2023-02-22T08:50:16;18.50;;;11.80;;
55053;SDS011;40954;45.668;18.980;2023-02-22T08:52:42;19.13;;;10.82;;
55053;SDS011;40954;45.668;18.980;2023-02-22T08:55:08;7.07;;;6.30;;
55053;SDS011;40954;45.668;18.980;2023-02-22T08:57:34;9.68;;;6.10;;
55053;SDS011;40954;45.668;18.980;2023-02-22T09:00:01;7.80;;;6.43;;
55053;SDS011;40954;45.668;18.980;2023-02-22T09:02:27;6.65;;;5.63;;
55053;SDS011;40954;45.668;18.980;2023-02-22T09:04:53;7.10;;;5.00;;
55053;SDS011;40954;45.668;18.980;2023-02-22T09:07:19;6.07;;;4.60;;
55053;SDS011;40954;45.668;18.980;2023-02-22T09:09:45;9.30;;;6.07;;
55053;SDS011;40954;45.668;18.980;2023-02-22T09:12:11;6.70;;;5.68;;
55053;SDS011;40954;45.668;18.980;2023-02-22T09:14:37;21.55;;;12.93;;
55053;SDS011;40954;45.668;18.980;2023-02-22T09:17:03;13.20;;;8.40;;
55053;SDS011;40954;45.668;18.980;2023-02-22T09:19:29;7.35;;;5.75;;
55053;SDS011;40954;45.668;18.980;2023-02-22T09:21:56;8.32;;;5.93;;
55053;SDS011;40954;45.668;18.980;2023-02-22T09:24:22;6.68;;;5.30;;
55053;SDS011;40954;45.668;18.980;2023-02-22T09:26:48;10.80;;;6.13;;
55053;SDS011;40954;45.668;18.980;2023-02-22T09:29:18;6.05;;;5.18;;
55053;SDS011;40954;45.668;18.980;2023-02-22T09:31:47;5.45;;;4.88;;
55053;SDS011;40954;45.668;18.980;2023-02-22T09:34:13;5.07;;;4.18;;
55053;SDS011;40954;45.668;18.980;2023-02-22T09:36:40;6.60;;;4.97;;
55053;SDS011;40954;45.668;18.980;2023-02-22T09:39:07;6.10;;;4.90;;
55053;SDS011;40954;45.668;18.980;2023-02-22T09:47:00;7.57;;;5.53;;
55053;SDS011;40954;45.668;18.980;2023-02-22T09:49:28;5.78;;;4.97;;
55053;SDS011;40954;45.668;18.980;2023-02-22T09:52:13;5.25;;;4.10;;
55053;SDS011;40954;45.668;18.980;2023-02-22T09:54:59;4.75;;;4.28;;
55053;SDS011;40954;45.668;18.980;2023-02-22T09:57:33;5.57;;;4.55;;
55053;SDS011;40954;45.668;18.980;2023-02-22T10:01:03;5.80;;;4.40;;
55053;SDS011;40954;45.668;18.980;2023-02-22T10:05:32;6.68;;;4.65;;
55053;SDS011;40954;45.668;18.980;2023-02-22T10:08:02;5.95;;;4.50;;
55053;SDS011;40954;45.668;18.980;2023-02-22T10:10:33;5.43;;;4.57;;
55053;SDS011;40954;45.668;18.980;2023-02-22T10:13:06;5.18;;;4.03;;
55053;SDS011;40954;45.668;18.980;2023-02-22T10:20:53;5.43;;;4.55;;
55053;SDS011;40954;45.668;18.980;2023-02-22T10:26:18;7.20;;;6.07;;
55053;SDS011;40954;45.668;18.980;2023-02-22T10:29:07;6.13;;;5.38;;
55053;SDS011;40954;45.668;18.980;2023-02-22T10:31:32;9.40;;;5.35;;
55053;SDS011;40954;45.668;18.980;2023-02-22T10:34:06;25.88;;;13.70;;
55053;SDS011;40954;45.668;18.980;2023-02-22T10:36:36;25.67;;;12.70;;
55053;SDS011;40954;45.668;18.980;2023-02-22T10:39:19;7.35;;;5.38;;
55053;SDS011;40954;45.668;18.980;2023-02-22T10:41:50;3.35;;;3.05;;
55053;SDS011;40954;45.668;18.980;2023-02-22T10:44:18;5.05;;;2.88;;
55053;SDS011;40954;45.668;18.980;2023-02-22T10:46:44;3.45;;;2.92;;
55053;SDS011;40954;45.668;18.980;2023-02-22T10:49:10;4.70;;;3.33;;
55053;SDS011;40954;45.668;18.980;2023-02-22T10:51:37;3.72;;;3.35;;
55053;SDS011;40954;45.668;18.980;2023-02-22T10:56:48;8.85;;;6.63;;
55053;SDS011;40954;45.668;18.980;2023-02-22T11:02:00;5.95;;;4.13;;
55053;SDS011;40954;45.668;18.980;2023-02-22T11:04:26;5.85;;;3.97;;
55053;SDS011;40954;45.668;18.980;2023-02-22T11:09:24;3.65;;;3.30;;
55053;SDS011;40954;45.668;18.980;2023-02-22T11:14:55;1.50;;;1.40;;
55053;SDS011;40954;45.668;18.980;2023-02-22T11:17:25;6.90;;;3.00;;
55053;SDS011;40954;45.668;18.980;2023-02-22T11:19:54;3.63;;;2.15;;
55053;SDS011;40954;45.668;18.980;2023-02-22T11:22:21;3.38;;;2.25;;
55053;SDS011;40954;45.668;18.980;2023-02-22T11:24:54;5.68;;;3.25;;
55053;SDS011;40954;45.668;18.980;2023-02-22T11:30:06;2.80;;;2.60;;
55053;SDS011;40954;45.668;18.980;2023-02-22T11:32:33;2.60;;;2.40;;
55053;SDS011;40954;45.668;18.980;2023-02-22T11:35:18;3.55;;;3.13;;
55053;SDS011;40954;45.668;18.980;2023-02-22T11:37:44;10.82;;;9.70;;
55053;SDS011;40954;45.668;18.980;2023-02-22T11:40:15;3.53;;;3.17;;
55053;SDS011;40954;45.668;18.980;2023-02-22T11:42:43;2.30;;;2.10;;
55053;SDS011;40954;45.668;18.980;2023-02-22T11:47:55;2.05;;;1.92;;
55053;SDS011;40954;45.668;18.980;2023-02-22T11:55:48;2.67;;;2.47;;
55053;SDS011;40954;45.668;18.980;2023-02-22T11:58:25;2.92;;;2.35;;
55053;SDS011;40954;45.668;18.980;2023-02-22T12:04:02;1.67;;;1.50;;
55053;SDS011;40954;45.668;18.980;2023-02-22T12:06:44;1.70;;;1.60;;
55053;SDS011;40954;45.668;18.980;2023-02-22T12:09:21;1.70;;;1.55;;
55053;SDS011;40954;45.668;18.980;2023-02-22T12:17:08;1.70;;;1.60;;
55053;SDS011;40954;45.668;18.980;2023-02-22T12:19:39;2.85;;;1.95;;
55053;SDS011;40954;45.668;18.980;2023-02-22T12:22:09;2.47;;;2.28;;
55053;SDS011;40954;45.668;18.980;2023-02-22T12:27:24;3.22;;;2.30;;
55053;SDS011;40954;45.668;18.980;2023-02-22T12:29:54;4.78;;;2.78;;
55053;SDS011;40954;45.668;18.980;2023-02-22T12:32:42;2.30;;;2.10;;
55053;SDS011;40954;45.668;18.980;2023-02-22T12:35:15;3.53;;;2.20;;
55053;SDS011;40954;45.668;18.980;2023-02-22T12:40:18;3.72;;;2.67;;
55053;SDS011;40954;45.668;18.980;2023-02-22T12:48:25;6.22;;;2.10;;
55053;SDS011;40954;45.668;18.980;2023-02-22T12:50:55;1.90;;;1.80;;
55053;SDS011;40954;45.668;18.980;2023-02-22T12:53:24;3.78;;;2.80;;
55053;SDS011;40954;45.668;18.980;2023-02-22T12:55:53;2.25;;;1.92;;
55053;SDS011;40954;45.668;18.980;2023-02-22T12:58:26;3.05;;;2.80;;
55053;SDS011;40954;45.668;18.980;2023-02-22T13:01:05;5.03;;;3.00;;
55053;SDS011;40954;45.668;18.980;2023-02-22T13:03:36;3.45;;;2.08;;
55053;SDS011;40954;45.668;18.980;2023-02-22T13:08:54;2.60;;;2.40;;
55053;SDS011;40954;45.668;18.980;2023-02-22T13:11:35;2.40;;;2.00;;
55053;SDS011;40954;45.668;18.980;2023-02-22T13:19:30;27.38;;;5.90;;
55053;SDS011;40954;45.668;18.980;2023-02-22T13:21:58;27.20;;;6.05;;
55053;SDS011;40954;45.668;18.980;2023-02-22T13:27:07;18.63;;;4.97;;
55053;SDS011;40954;45.668;18.980;2023-02-22T13:29:38;11.88;;;4.50;;
55053;SDS011;40954;45.668;18.980;2023-02-22T13:49:46;6.70;;;3.58;;
55053;SDS011;40954;45.668;18.980;2023-02-22T13:52:14;16.88;;;4.80;;
55053;SDS011;40954;45.668;18.980;2023-02-22T13:54:45;8.68;;;3.90;;
55053;SDS011;40954;45.668;18.980;2023-02-22T13:57:20;5.38;;;2.65;;
55053;SDS011;40954;45.668;18.980;2023-02-22T13:59:47;11.70;;;5.60;;
55053;SDS011;40954;45.668;18.980;2023-02-22T14:02:33;3.88;;;2.60;;
55053;SDS011;40954;45.668;18.980;2023-02-22T14:08:03;11.95;;;4.22;;
55053;SDS011;40954;45.668;18.980;2023-02-22T14:13:05;2.60;;;2.40;;
55053;SDS011;40954;45.668;18.980;2023-02-22T14:15:31;2.13;;;1.97;;
55053;SDS011;40954;45.668;18.980;2023-02-22T14:18:02;5.15;;;3.53;;
55053;SDS011;40954;45.668;18.980;2023-02-22T14:20:29;15.80;;;4.88;;
55053;SDS011;40954;45.668;18.980;2023-02-22T14:22:56;2.80;;;2.60;;
55053;SDS011;40954;45.668;18.980;2023-02-22T14:25:41;4.75;;;4.20;;
55053;SDS011;40954;45.668;18.980;2023-02-22T14:28:08;6.43;;;3.50;;
55053;SDS011;40954;45.668;18.980;2023-02-22T14:31:03;3.00;;;2.70;;
55053;SDS011;40954;45.668;18.980;2023-02-22T14:36:14;5.78;;;3.72;;
55053;SDS011;40954;45.668;18.980;2023-02-22T14:38:42;4.03;;;3.15;;
55053;SDS011;40954;45.668;18.980;2023-02-22T14:41:10;7.03;;;4.38;;
55053;SDS011;40954;45.668;18.980;2023-02-22T14:43:36;3.85;;;2.45;;
55053;SDS011;40954;45.668;18.980;2023-02-22T14:46:02;2.53;;;2.33;;
55053;SDS011;40954;45.668;18.980;2023-02-22T14:48:31;3.05;;;2.72;;
55053;SDS011;40954;45.668;18.980;2023-02-22T14:51:04;4.15;;;2.78;;
55053;SDS011;40954;45.668;18.980;2023-02-22T14:53:42;2.38;;;2.10;;
55053;SDS011;40954;45.668;18.980;2023-02-22T14:56:20;3.55;;;3.25;;
55053;SDS011;40954;45.668;18.980;2023-02-22T15:01:35;12.35;;;8.90;;
55053;SDS011;40954;45.668;18.980;2023-02-22T15:06:46;4.55;;;3.42;;
55053;SDS011;40954;45.668;18.980;2023-02-22T15:09:14;4.38;;;3.05;;
55053;SDS011;40954;45.668;18.980;2023-02-22T15:11:50;3.97;;;3.58;;
55053;SDS011;40954;45.668;18.980;2023-02-22T15:14:21;3.35;;;3.10;;
55053;SDS011;40954;45.668;18.980;2023-02-22T15:16:48;3.30;;;3.00;;
55053;SDS011;40954;45.668;18.980;2023-02-22T15:19:16;7.00;;;4.63;;
55053;SDS011;40954;45.668;18.980;2023-02-22T15:21:49;6.65;;;4.82;;
55053;SDS011;40954;45.668;18.980;2023-02-22T15:24:20;6.15;;;4.47;;
55053;SDS011;40954;45.668;18.980;2023-02-22T15:26:46;4.75;;;4.10;;
55053;SDS011;40954;45.668;18.980;2023-02-22T15:29:19;4.80;;;4.22;;
55053;SDS011;40954;45.668;18.980;2023-02-22T15:31:46;6.88;;;4.35;;
55053;SDS011;40954;45.668;18.980;2023-02-22T15:34:16;4.75;;;3.55;;
55053;SDS011;40954;45.668;18.980;2023-02-22T15:36:46;6.50;;;4.43;;
55053;SDS011;40954;45.668;18.980;2023-02-22T15:41:44;9.10;;;6.07;;
55053;SDS011;40954;45.668;18.980;2023-02-22T15:44:10;11.85;;;7.38;;
55053;SDS011;40954;45.668;18.980;2023-02-22T15:46:39;11.43;;;7.78;;
55053;SDS011;40954;45.668;18.980;2023-02-22T15:51:34;10.65;;;7.05;;
55053;SDS011;40954;45.668;18.980;2023-02-22T15:54:02;11.85;;;7.30;;
55053;SDS011;40954;45.668;18.980;2023-02-22T15:56:30;11.48;;;8.95;;
55053;SDS011;40954;45.668;18.980;2023-02-22T15:59:12;11.68;;;8.00;;
55053;SDS011;40954;45.668;18.980;2023-02-22T16:01:40;11.82;;;7.30;;
55053;SDS011;40954;45.668;18.980;2023-02-22T16:04:06;11.85;;;9.18;;
55053;SDS011;40954;45.668;18.980;2023-02-22T16:06:40;14.73;;;10.43;;
55053;SDS011;40954;45.668;18.980;2023-02-22T16:09:07;20.38;;;13.23;;
55053;SDS011;40954;45.668;18.980;2023-02-22T16:11:35;18.77;;;14.15;;
55053;SDS011;40954;45.668;18.980;2023-02-22T16:14:05;31.83;;;17.98;;
55053;SDS011;40954;45.668;18.980;2023-02-22T16:16:40;29.95;;;19.15;;
55053;SDS011;40954;45.668;18.980;2023-02-22T16:19:41;38.88;;;21.40;;
55053;SDS011;40954;45.668;18.980;2023-02-22T16:22:01;30.80;;;19.70;;
55053;SDS011;40954;45.668;18.980;2023-02-22T16:24:29;39.08;;;22.13;;
55053;SDS011;40954;45.668;18.980;2023-02-22T16:27:02;47.05;;;25.73;;
55053;SDS011;40954;45.668;18.980;2023-02-22T16:29:29;49.67;;;22.85;;
55053;SDS011;40954;45.668;18.980;2023-02-22T16:31:55;47.17;;;21.23;;
55053;SDS011;40954;45.668;18.980;2023-02-22T16:34:21;37.15;;;19.77;;
55053;SDS011;40954;45.668;18.980;2023-02-22T16:36:47;22.40;;;13.90;;
55053;SDS011;40954;45.668;18.980;2023-02-22T16:41:43;25.63;;;15.60;;
55053;SDS011;40954;45.668;18.980;2023-02-22T16:44:09;21.80;;;15.82;;
55053;SDS011;40954;45.668;18.980;2023-02-22T16:46:36;27.30;;;16.40;;
55053;SDS011;40954;45.668;18.980;2023-02-22T16:49:02;22.23;;;15.25;;
55053;SDS011;40954;45.668;18.980;2023-02-22T16:51:31;18.98;;;15.23;;